createdAt,value
2023-02-24T00:01:52.748Z,21.23
2023-02-24T00:04:22.209Z,22.30
2023-02-24T00:06:50.335Z,21.53
2023-02-24T00:09:21.538Z,22.97
2023-02-24T00:11:54.416Z,22.10
2023-02-24T00:14:24.758Z,24.23
2023-02-24T00:16:53.881Z,24.47
2023-02-24T00:19:24.584Z,22.67
2023-02-24T00:21:54.369Z,23.60
2023-02-24T00:24:29.745Z,23.70
2023-02-24T00:27:00.573Z,21.93
2023-02-24T00:29:30.180Z,20.23
2023-02-24T00:32:00.946Z,20.93
2023-02-24T00:34:30.971Z,20.03
2023-02-24T00:36:59.941Z,21.17
2023-02-24T00:39:33.165Z,20.43
2023-02-24T00:42:05.866Z,20.67
2023-02-24T00:44:35.812Z,22.03
2023-02-24T00:47:05.093Z,20.40
2023-02-24T00:49:35.960Z,21.50
2023-02-24T00:52:06.690Z,20.57
2023-02-24T00:54:38.198Z,20.63
2023-02-24T00:57:08.314Z,20.47
2023-02-24T00:59:37.192Z,21.77
2023-02-24T01:02:07.243Z,22.20
2023-02-24T01:04:37.672Z,21.50
2023-02-24T01:07:11.151Z,20.50
2023-02-24T01:09:42.709Z,20.40
2023-02-24T01:12:29.537Z,20.17
2023-02-24T01:14:57.624Z,19.90
2023-02-24T01:17:26.437Z,20.07
2023-02-24T01:19:55.210Z,21.40
2023-02-24T01:22:23.959Z,20.07
2023-02-24T01:24:53.609Z,21.43
2023-02-24T01:27:21.715Z,22.60
2023-02-24T01:29:50.267Z,20.43
2023-02-24T01:32:21.062Z,20.17
2023-02-24T01:34:52.606Z,21.37
2023-02-24T01:37:21.448Z,19.90
2023-02-24T01:39:50.229Z,20.43
2023-02-24T01:42:22.229Z,22.07
2023-02-24T01:45:22.887Z,20.33
2023-02-24T01:47:52.744Z,19.93
2023-02-24T01:50:23.506Z,20.03
2023-02-24T01:52:56.806Z,19.40
2023-02-24T01:55:29.260Z,20.23
2023-02-24T01:58:01.846Z,20.20
2023-02-24T02:00:37.842Z,21.43
2023-02-24T02:03:12.416Z,18.97
2023-02-24T02:05:42.353Z,20.87
2023-02-24T02:08:11.508Z,20.97
2023-02-24T02:10:44.308Z,21.27
2023-02-24T02:13:16.798Z,22.67
2023-02-24T02:15:57.083Z,18.97
2023-02-24T02:18:35.973Z,20.67
2023-02-24T02:21:56.776Z,21.30
2023-02-24T02:24:49.573Z,21.43
2023-02-24T02:27:32.149Z,19.73
2023-02-24T02:30:45.999Z,20.03
2023-02-24T02:33:53.533Z,19.63
2023-02-24T02:36:28.141Z,21.37
2023-02-24T02:39:05.848Z,19.73
2023-02-24T02:41:41.413Z,21.73
2023-02-24T02:44:13.048Z,21.37
2023-02-24T02:46:46.245Z,19.40
2023-02-24T02:49:20.928Z,21.90
2023-02-24T02:51:54.097Z,20.40
2023-02-24T02:54:29.422Z,19.53
2023-02-24T02:57:03.307Z,19.93
2023-02-24T02:59:33.855Z,21.33
2023-02-24T03:02:11.855Z,20.70
2023-02-24T03:04:43.558Z,19.97
2023-02-24T03:07:17.805Z,21.17
2023-02-24T03:09:52.011Z,20.30
2023-02-24T03:12:23.544Z,21.17
2023-02-24T03:14:57.573Z,20.23
2023-02-24T03:17:28.226Z,20.43
2023-02-24T03:20:02.322Z,20.27
2023-02-24T03:22:37.587Z,19.70
2023-02-24T03:25:07.054Z,20.43
2023-02-24T03:27:48.972Z,21.87
2023-02-24T03:30:22.599Z,22.33
2023-02-24T03:32:56.935Z,20.97
2023-02-24T03:35:30.453Z,21.73
2023-02-24T03:38:01.589Z,22.57
2023-02-24T03:40:35.037Z,23.47
2023-02-24T03:43:09.351Z,24.83
2023-02-24T03:45:39.485Z,22.77
2023-02-24T03:48:11.989Z,23.23
2023-02-24T03:50:42.106Z,24.30
2023-02-24T03:53:41.781Z,24.50
2023-02-24T03:56:23.566Z,24.27
2023-02-24T03:59:06.274Z,23.97
2023-02-24T04:01:43.453Z,24.57
2023-02-24T04:04:27.537Z,23.63
2023-02-24T04:07:12.965Z,23.03
2023-02-24T04:09:48.503Z,23.10
2023-02-24T04:12:23.173Z,21.73
2023-02-24T04:15:04.698Z,24.30
2023-02-24T04:17:39.590Z,22.10
2023-02-24T04:20:13.549Z,23.40
2023-02-24T04:22:50.103Z,23.30
2023-02-24T04:25:24.860Z,23.10
2023-02-24T04:27:56.853Z,21.57
2023-02-24T04:30:28.229Z,22.73
2023-02-24T04:32:57.693Z,22.90
2023-02-24T04:35:28.014Z,21.57
2023-02-24T04:37:58.155Z,22.10
2023-02-24T04:40:28.578Z,21.27
2023-02-24T04:42:56.741Z,20.53
2023-02-24T04:45:27.541Z,21.07
2023-02-24T04:48:00.975Z,21.17
2023-02-24T04:50:32.801Z,20.23
2023-02-24T04:53:02.655Z,19.90
2023-02-24T04:55:34.193Z,21.77
2023-02-24T04:58:03.019Z,21.40
2023-02-24T05:00:35.923Z,21.40
2023-02-24T05:03:06.136Z,19.80
2023-02-24T05:05:34.765Z,21.93
2023-02-24T05:08:04.815Z,21.80
2023-02-24T05:10:41.000Z,22.00
2023-02-24T05:13:11.017Z,21.17
2023-02-24T05:15:41.904Z,21.50
2023-02-24T05:18:14.218Z,22.73
2023-02-24T05:21:03.371Z,21.00
2023-02-24T05:23:34.216Z,22.27
2023-02-24T05:26:09.059Z,20.37
2023-02-24T05:28:38.362Z,23.20
2023-02-24T05:31:09.458Z,22.80
2023-02-24T05:33:38.897Z,22.37
2023-02-24T05:36:09.973Z,22.23
2023-02-24T05:38:39.106Z,22.27
2023-02-24T05:41:15.165Z,22.50
2023-02-24T05:43:48.222Z,22.90
2023-02-24T05:46:16.881Z,21.93
2023-02-24T05:48:45.272Z,22.53
2023-02-24T05:51:13.646Z,22.30
2023-02-24T05:53:42.548Z,23.13
2023-02-24T05:56:12.576Z,23.83
2023-02-24T05:58:40.903Z,21.87
2023-02-24T06:01:16.409Z,21.97
2023-02-24T06:03:48.080Z,22.77
2023-02-24T06:06:16.904Z,22.23
2023-02-24T06:08:50.647Z,21.97
2023-02-24T06:11:21.766Z,23.60
2023-02-24T06:13:50.480Z,21.97
2023-02-24T06:16:19.929Z,23.53
2023-02-24T06:18:51.022Z,21.60
2023-02-24T06:21:20.086Z,22.40
2023-02-24T06:23:48.552Z,20.63
2023-02-24T06:26:19.607Z,23.23
2023-02-24T06:28:50.030Z,20.93
2023-02-24T06:31:18.271Z,20.93
2023-02-24T06:33:46.502Z,23.17
2023-02-24T06:36:15.657Z,22.40
2023-02-24T06:38:44.017Z,23.53
2023-02-24T06:41:12.199Z,23.50
2023-02-24T06:43:41.360Z,23.27
2023-02-24T06:46:13.272Z,22.37
2023-02-24T06:48:41.776Z,20.83
2023-02-24T06:51:13.767Z,23.47
2023-02-24T06:53:43.345Z,22.10
2023-02-24T06:56:15.933Z,23.50
2023-02-24T06:58:45.259Z,22.00
2023-02-24T07:01:16.791Z,21.47
2023-02-24T07:04:03.359Z,21.27
2023-02-24T07:06:34.832Z,21.23
2023-02-24T07:09:07.200Z,21.63
2023-02-24T07:11:36.714Z,20.33
2023-02-24T07:14:06.647Z,20.80
2023-02-24T07:16:37.451Z,20.93
2023-02-24T07:19:11.279Z,19.50
2023-02-24T07:21:40.910Z,20.87
2023-02-24T07:24:09.847Z,20.60
2023-02-24T07:26:41.713Z,21.37
2023-02-24T07:29:11.500Z,21.43
2023-02-24T07:31:43.058Z,20.97
2023-02-24T07:34:15.131Z,20.83
2023-02-24T07:36:50.241Z,21.57
2023-02-24T07:39:19.606Z,21.93
2023-02-24T07:41:49.727Z,21.00
2023-02-24T07:44:20.262Z,21.60
2023-02-24T07:46:50.294Z,20.80
2023-02-24T07:49:20.740Z,21.70
2023-02-24T07:51:52.685Z,22.13
2023-02-24T07:54:22.292Z,20.80
2023-02-24T07:56:57.756Z,21.03
2023-02-24T07:59:27.472Z,20.23
2023-02-24T08:01:57.493Z,21.13
2023-02-24T08:04:27.906Z,21.77
2023-02-24T08:07:03.096Z,24.53
2023-02-24T08:10:09.071Z,20.73
2023-02-24T08:12:42.756Z,20.10
2023-02-24T08:15:22.160Z,20.53
2023-02-24T08:17:53.272Z,20.00
2023-02-24T08:20:26.167Z,20.70
2023-02-24T08:22:55.892Z,21.37
2023-02-24T08:25:35.554Z,21.33
2023-02-24T08:28:09.511Z,21.60
2023-02-24T08:30:40.323Z,22.90
2023-02-24T08:33:16.051Z,22.75
2023-02-24T08:35:45.641Z,22.38
2023-02-24T08:38:17.028Z,22.48
2023-02-24T08:40:55.037Z,23.10
2023-02-24T08:43:33.144Z,24.20
2023-02-24T08:46:06.615Z,23.13
2023-02-24T08:48:38.340Z,22.65
2023-02-24T08:51:11.718Z,21.55
2023-02-24T08:53:41.518Z,21.92
2023-02-24T08:56:12.830Z,22.80
2023-02-24T08:58:47.410Z,21.48
2023-02-24T09:01:24.357Z,20.92
2023-02-24T09:03:57.435Z,20.40
2023-02-24T09:06:35.684Z,22.05
2023-02-24T09:09:20.857Z,21.48
2023-02-24T09:11:50.877Z,20.90
2023-02-24T09:14:28.961Z,20.55
2023-02-24T09:17:06.541Z,20.40
2023-02-24T09:20:01.846Z,17.55
2023-02-24T09:22:57.377Z,18.92
2023-02-24T09:25:40.673Z,18.52
2023-02-24T09:28:17.189Z,17.77
2023-02-24T09:30:54.475Z,18.70
2023-02-24T09:33:25.693Z,15.38
2023-02-24T09:36:14.354Z,14.63
2023-02-24T09:39:02.380Z,16.20
2023-02-24T09:41:53.749Z,14.57
2023-02-24T09:44:29.654Z,17.17
2023-02-24T09:47:09.177Z,16.02
2023-02-24T09:49:48.151Z,14.68
2023-02-24T09:52:19.714Z,13.95
2023-02-24T09:55:10.743Z,12.02
2023-02-24T09:58:13.078Z,13.10
2023-02-24T10:00:46.975Z,14.52
2023-02-24T10:03:41.678Z,14.05
2023-02-24T10:06:20.982Z,15.32
2023-02-24T10:08:58.847Z,13.60
2023-02-24T10:11:35.385Z,13.95
2023-02-24T10:14:07.565Z,12.43
2023-02-24T10:16:44.464Z,12.52
2023-02-24T10:19:24.322Z,11.43
2023-02-24T10:22:02.841Z,11.93
2023-02-24T10:24:38.745Z,11.48
2023-02-24T10:27:17.769Z,12.45
2023-02-24T10:30:05.023Z,12.77
2023-02-24T10:32:42.612Z,12.35
2023-02-24T10:35:17.719Z,12.73
2023-02-24T10:37:46.249Z,13.13
2023-02-24T10:40:26.591Z,13.00
2023-02-24T10:43:10.600Z,13.55
2023-02-24T10:45:45.304Z,13.75
2023-02-24T10:48:40.362Z,13.90
2023-02-24T10:51:20.174Z,12.98
2023-02-24T10:54:05.110Z,13.02
2023-02-24T10:56:44.559Z,13.75
2023-02-24T10:59:41.335Z,12.40
2023-02-24T11:02:29.813Z,12.68
2023-02-24T11:05:20.154Z,12.48
2023-02-24T11:07:54.128Z,11.75
2023-02-24T11:10:32.566Z,12.25
2023-02-24T11:13:19.972Z,11.25
2023-02-24T11:16:08.310Z,11.25
2023-02-24T11:18:39.249Z,10.93
2023-02-24T11:21:12.158Z,11.52
2023-02-24T11:23:43.388Z,10.50
2023-02-24T11:26:17.900Z,10.13
2023-02-24T11:28:59.540Z,10.60
2023-02-24T11:31:45.835Z,10.55
2023-02-24T11:34:24.675Z,11.25
2023-02-24T11:37:00.562Z,10.60
2023-02-24T11:39:45.651Z,10.82
2023-02-24T11:42:17.878Z,11.27
2023-02-24T11:44:54.568Z,11.20
2023-02-24T11:47:29.176Z,10.65
2023-02-24T11:50:06.681Z,10.18
2023-02-24T11:52:39.694Z,9.80
2023-02-24T11:55:21.455Z,10.32
2023-02-24T11:57:53.777Z,11.15
2023-02-24T12:00:28.077Z,10.40
2023-02-24T12:03:04.166Z,10.52
2023-02-24T12:05:37.287Z,9.77
2023-02-24T12:08:11.726Z,10.18
2023-02-24T12:10:47.655Z,9.80
2023-02-24T12:13:22.682Z,10.13
2023-02-24T12:15:59.346Z,9.98
2023-02-24T12:18:34.410Z,8.77
2023-02-24T12:21:07.276Z,9.05
2023-02-24T12:23:37.635Z,9.18
2023-02-24T12:26:18.433Z,10.18
2023-02-24T12:29:02.859Z,8.40
2023-02-24T12:31:42.938Z,10.07
2023-02-24T12:34:16.440Z,9.38
2023-02-24T12:37:07.762Z,10.20
2023-02-24T12:39:48.607Z,9.65
2023-02-24T12:42:26.310Z,9.70
2023-02-24T12:45:02.498Z,10.35
2023-02-24T12:47:44.851Z,9.23
2023-02-24T12:50:38.987Z,8.82
2023-02-24T12:53:17.482Z,9.15
2023-02-24T12:55:55.435Z,9.25
2023-02-24T12:58:27.865Z,9.40
2023-02-24T13:01:08.528Z,8.82
2023-02-24T13:04:05.174Z,9.30
2023-02-24T13:06:48.314Z,9.35
2023-02-24T13:09:23.778Z,8.50
2023-02-24T13:11:59.221Z,9.93
2023-02-24T13:14:31.842Z,8.68
2023-02-24T13:17:19.915Z,9.50
2023-02-24T13:19:52.332Z,8.32
2023-02-24T13:22:29.940Z,8.63
2023-02-24T13:25:12.018Z,9.23
2023-02-24T13:27:43.739Z,8.10
2023-02-24T13:30:28.448Z,8.63
2023-02-24T13:33:06.954Z,8.90
2023-02-24T13:35:38.504Z,8.77
2023-02-24T13:38:23.581Z,7.88
2023-02-24T13:40:52.303Z,8.05
2023-02-24T13:43:27.197Z,8.85
2023-02-24T13:45:59.537Z,9.45
2023-02-24T13:48:43.786Z,8.98
2023-02-24T13:51:29.498Z,8.50
2023-02-24T13:54:12.259Z,8.85
2023-02-24T13:56:45.983Z,7.97
2023-02-24T13:59:49.732Z,7.75
2023-02-24T14:02:20.968Z,8.35
2023-02-24T14:04:51.703Z,8.02
2023-02-24T14:07:25.620Z,8.20
2023-02-24T14:09:58.052Z,8.00
2023-02-24T14:12:28.225Z,8.45
2023-02-24T14:14:57.817Z,7.78
2023-02-24T14:17:30.388Z,7.93
2023-02-24T14:20:14.349Z,8.45
2023-02-24T14:22:47.829Z,8.80
2023-02-24T14:25:17.248Z,8.75
2023-02-24T14:27:48.419Z,9.05
2023-02-24T14:30:25.535Z,8.32
2023-02-24T14:32:54.941Z,8.85
2023-02-24T14:35:30.214Z,8.48
2023-02-24T14:38:01.998Z,7.85
2023-02-24T14:40:30.947Z,8.35
2023-02-24T14:43:00.322Z,8.35
2023-02-24T14:45:30.881Z,9.15
2023-02-24T14:47:59.614Z,7.75
2023-02-24T14:50:31.474Z,8.38
2023-02-24T14:53:05.088Z,8.55
2023-02-24T14:55:37.205Z,7.50
2023-02-24T14:58:12.738Z,7.63
2023-02-24T15:00:58.391Z,7.70
2023-02-24T15:03:31.506Z,6.55
2023-02-24T15:06:06.126Z,7.15
2023-02-24T15:08:39.916Z,8.15
2023-02-24T15:11:19.806Z,7.82
2023-02-24T15:13:51.245Z,7.82
2023-02-24T15:16:23.384Z,7.55
2023-02-24T15:18:53.749Z,7.95
2023-02-24T15:21:29.030Z,8.38
2023-02-24T15:24:03.138Z,7.32
2023-02-24T15:26:34.726Z,7.97
2023-02-24T15:29:13.113Z,7.85
2023-02-24T15:31:41.917Z,8.27
2023-02-24T15:34:21.343Z,7.60
2023-02-24T15:36:53.795Z,8.40
2023-02-24T15:39:28.453Z,8.03
2023-02-24T15:42:09.569Z,7.77
2023-02-24T15:44:38.823Z,7.40
2023-02-24T15:47:23.356Z,8.20
2023-02-24T15:49:51.923Z,8.80
2023-02-24T15:52:24.605Z,8.77
2023-02-24T15:54:56.706Z,8.10
2023-02-24T15:57:25.596Z,8.30
2023-02-24T15:59:54.743Z,9.77
2023-02-24T16:02:25.800Z,9.30
2023-02-24T16:04:54.233Z,9.17
2023-02-24T16:07:26.510Z,8.63
2023-02-24T16:09:58.447Z,8.70
2023-02-24T16:12:31.923Z,8.60
2023-02-24T16:15:04.653Z,8.40
2023-02-24T16:17:37.761Z,9.40
2023-02-24T16:20:09.358Z,8.37
2023-02-24T16:22:38.128Z,8.77
2023-02-24T16:25:09.169Z,8.47
2023-02-24T16:27:37.613Z,8.20
2023-02-24T16:30:07.027Z,8.70
2023-02-24T16:32:35.756Z,9.60
2023-02-24T16:35:08.720Z,8.17
2023-02-24T16:37:38.259Z,8.43
2023-02-24T16:40:21.463Z,8.97
2023-02-24T16:42:51.807Z,8.27
2023-02-24T16:45:23.814Z,8.13
2023-02-24T16:47:52.354Z,9.23
2023-02-24T16:50:24.470Z,8.43
2023-02-24T16:52:52.775Z,8.80
2023-02-24T16:55:22.368Z,9.13
2023-02-24T16:57:50.910Z,8.50
2023-02-24T17:00:23.896Z,9.27
2023-02-24T17:02:53.083Z,9.40
2023-02-24T17:05:23.748Z,7.57
2023-02-24T17:07:55.292Z,8.63
2023-02-24T17:10:26.811Z,9.33
2023-02-24T17:12:58.325Z,9.53
2023-02-24T17:15:27.843Z,9.70
2023-02-24T17:17:56.913Z,8.53
2023-02-24T17:20:25.631Z,10.20
2023-02-24T17:22:54.209Z,11.20
2023-02-24T17:25:27.351Z,9.17
2023-02-24T17:28:00.685Z,9.07
2023-02-24T17:30:31.930Z,8.33
2023-02-24T17:33:03.721Z,9.17
2023-02-24T17:35:32.542Z,8.97
2023-02-24T17:38:01.751Z,8.30
2023-02-24T17:40:31.777Z,8.20
2023-02-24T17:43:00.426Z,8.20
2023-02-24T17:45:29.072Z,9.37
2023-02-24T17:47:57.674Z,8.70
2023-02-24T17:50:28.160Z,9.20
2023-02-24T17:52:58.834Z,9.50
2023-02-24T17:55:28.209Z,8.47
2023-02-24T17:58:00.706Z,9.60
2023-02-24T18:00:32.265Z,9.17
2023-02-24T18:03:03.378Z,10.03
2023-02-24T18:05:32.815Z,10.53
2023-02-24T18:08:01.934Z,10.63
2023-02-24T18:10:31.708Z,9.87
2023-02-24T18:13:03.485Z,10.03
2023-02-24T18:15:33.272Z,9.60
2023-02-24T18:18:05.416Z,9.50
2023-02-24T18:20:37.265Z,9.73
2023-02-24T18:23:06.845Z,8.87
2023-02-24T18:25:36.579Z,8.63
2023-02-24T18:28:09.283Z,8.80
2023-02-24T18:30:41.480Z,9.47
2023-02-24T18:33:12.041Z,9.13
2023-02-24T18:35:41.414Z,8.83
2023-02-24T18:38:12.238Z,8.87
2023-02-24T18:40:41.842Z,8.77
2023-02-24T18:43:12.057Z,9.03
2023-02-24T18:45:41.950Z,9.27
2023-02-24T18:48:12.209Z,10.00
2023-02-24T18:50:41.612Z,9.27
2023-02-24T18:53:11.101Z,10.53
2023-02-24T18:55:40.440Z,10.23
2023-02-24T18:58:09.353Z,10.00
2023-02-24T19:00:42.050Z,11.53
2023-02-24T19:03:12.369Z,11.93
2023-02-24T19:05:42.089Z,12.20
2023-02-24T19:08:11.576Z,11.60
2023-02-24T19:10:40.905Z,11.60
2023-02-24T19:13:10.437Z,12.77
2023-02-24T19:15:42.139Z,13.33
2023-02-24T19:18:12.261Z,13.07
2023-02-24T19:20:45.452Z,12.13
2023-02-24T19:23:14.975Z,10.80
2023-02-24T19:25:45.585Z,12.13
2023-02-24T19:28:17.209Z,12.57
2023-02-24T19:30:47.989Z,10.37
2023-02-24T19:33:17.781Z,10.20
2023-02-24T19:35:47.908Z,9.97
2023-02-24T19:38:22.040Z,10.53
2023-02-24T19:40:51.758Z,12.30
2023-02-24T19:43:21.549Z,12.20
2023-02-24T19:45:52.457Z,12.20
2023-02-24T19:48:22.076Z,10.27
2023-02-24T19:50:52.730Z,8.73
2023-02-24T19:53:22.234Z,10.20
2023-02-24T19:55:52.305Z,10.50
2023-02-24T19:58:25.513Z,11.90
2023-02-24T20:01:02.086Z,11.30
2023-02-24T20:03:31.517Z,11.13
2023-02-24T20:06:04.850Z,11.87
2023-02-24T20:08:37.527Z,11.27
2023-02-24T20:11:07.941Z,10.67
2023-02-24T20:13:37.146Z,9.67
2023-02-24T20:16:11.234Z,9.50
2023-02-24T20:18:41.197Z,9.93
2023-02-24T20:21:18.835Z,9.57
2023-02-24T20:23:50.176Z,9.43
2023-02-24T20:26:20.957Z,9.30
2023-02-24T20:28:52.507Z,8.13
2023-02-24T20:31:26.969Z,9.40
2023-02-24T20:33:58.777Z,9.30
2023-02-24T20:36:30.621Z,10.77
2023-02-24T20:39:04.185Z,9.20
2023-02-24T20:41:34.960Z,10.80
2023-02-24T20:44:05.967Z,9.53
2023-02-24T20:46:39.381Z,9.73
2023-02-24T20:49:13.476Z,9.43
2023-02-24T20:51:43.709Z,10.53
2023-02-24T20:54:14.925Z,9.90
2023-02-24T20:56:45.923Z,9.17
2023-02-24T20:59:16.778Z,9.53
2023-02-24T21:01:48.973Z,10.83
2023-02-24T21:04:21.579Z,10.60
2023-02-24T21:06:52.391Z,11.30
2023-02-24T21:09:21.631Z,10.97
2023-02-24T21:11:51.880Z,10.30
2023-02-24T21:14:23.598Z,11.60
2023-02-24T21:16:56.224Z,10.80
2023-02-24T21:19:26.617Z,12.10
2023-02-24T21:21:55.192Z,11.03
2023-02-24T21:24:24.203Z,11.20
2023-02-24T21:26:53.504Z,11.00
2023-02-24T21:29:22.220Z,11.00
2023-02-24T21:31:56.086Z,10.63
2023-02-24T21:34:25.135Z,11.10
2023-02-24T21:36:53.796Z,10.80
2023-02-24T21:39:23.125Z,12.00
2023-02-24T21:41:53.224Z,11.43
2023-02-24T21:44:21.395Z,10.90
2023-02-24T21:46:49.953Z,11.07
2023-02-24T21:49:20.089Z,11.77
2023-02-24T21:51:52.028Z,10.43
2023-02-24T21:54:20.737Z,10.83
2023-02-24T21:56:49.423Z,11.93
2023-02-24T21:59:17.814Z,10.53
2023-02-24T22:01:47.208Z,10.47
2023-02-24T22:04:19.151Z,10.50
2023-02-24T22:06:49.192Z,10.77
2023-02-24T22:09:20.192Z,11.07
2023-02-24T22:11:49.548Z,11.30
2023-02-24T22:14:18.050Z,9.87
2023-02-24T22:16:46.413Z,9.83
2023-02-24T22:19:14.796Z,10.33
2023-02-24T22:21:43.254Z,11.23
2023-02-24T22:24:16.131Z,10.10
2023-02-24T22:26:44.814Z,10.10
2023-02-24T22:29:13.108Z,11.60
2023-02-24T22:31:43.832Z,9.40
2023-02-24T22:34:13.181Z,12.90
2023-02-24T22:36:41.510Z,11.53
2023-02-24T22:39:09.721Z,11.67
2023-02-24T22:41:39.370Z,12.00
2023-02-24T22:44:08.169Z,13.27
2023-02-24T22:46:38.173Z,12.47
2023-02-24T22:49:06.632Z,13.27
2023-02-24T22:51:35.360Z,11.50
2023-02-24T22:54:06.834Z,12.30
2023-02-24T22:56:35.836Z,12.73
2023-02-24T22:59:05.391Z,13.10
2023-02-24T23:01:48.018Z,13.50
2023-02-24T23:04:18.252Z,13.27
2023-02-24T23:06:47.608Z,13.90
2023-02-24T23:09:19.905Z,13.70
2023-02-24T23:11:49.006Z,12.77
2023-02-24T23:14:18.961Z,11.90
2023-02-24T23:16:53.669Z,11.63
2023-02-24T23:19:22.212Z,12.80
2023-02-24T23:21:52.405Z,11.70
2023-02-24T23:24:21.759Z,12.63
2023-02-24T23:26:54.008Z,13.13
2023-02-24T23:29:24.007Z,12.23
2023-02-24T23:31:53.068Z,13.03
2023-02-24T23:34:21.379Z,13.00
2023-02-24T23:36:49.890Z,13.50
2023-02-24T23:39:20.769Z,12.87
2023-02-24T23:41:49.506Z,12.30
2023-02-24T23:44:17.669Z,12.90
2023-02-24T23:46:47.279Z,11.87
2023-02-24T23:49:15.987Z,12.30
2023-02-24T23:51:48.546Z,12.00
2023-02-24T23:54:17.496Z,11.77
2023-02-24T23:56:46.580Z,12.10
2023-02-24T23:59:15.263Z,13.03
